Главная страница
METAR-TAF:

METAR-TAF

Аэропорты :

University Park Airport

State College, Пенсильвания, США

широта: 40-51N, долгота: 077-51W, высота над уровнем моря: 378 м

Текущие метеонаблюдения

Эта сводка был подготовлена 16 минут назад, в 10:53 UTC
Штиль
Температура -6°C
Влажность 93%
Давление 1019 hPa
Видимость: 16.1 км
ясное небо

METAR: KUNV 191053Z 00000KT 10SM SKC M06/M07 A3009

Время: 06:09 (11:09 UTC)

Прогноз

Эта сводка был подготовлена 1 час и 56 минут назад, в 09:13 UTC
Прогноз действительный с 19-го 09 UTC до 20-го 06 UTC
Ветер Узел от северный
Видимость: 10 км
ясное небо
С 19-го 1500 UTC
Ветер 4 Узел от южный-юго-западный
Видимость: 10 км
ясное небо

TAF: KUNV 190913Z 1909/2006 00000KT P6SM SKC FM191500 21004KT P6SM SKC

Метеонаблюдения и прогнозы для более 4000 аэропортов (сводки METAR и TAF).

Имеющиеся станции представлены на карте желтыми и красными точками.

Чтобы увидеть название станции, наведите на нее мышь.

Затем щелкните, чтобы увидеть метеонаблюдения и метеопрогнозы.

Управление картой: чтобы увеличить масштаб, щелкните зеленые кнопки с черным крестиком; чтобы уменьшить масштаб, щелкните зеленую кнопку с тире; для просмотра соседних карт щелкайте зеленые стрелки.


METAR-TAF: